createdAt,value
2019-06-20T00:00:48.256Z,99943.00
2019-06-20T00:03:17.833Z,99938.00
2019-06-20T00:05:54.660Z,99930.00
2019-06-20T00:08:24.179Z,99928.00
2019-06-20T00:11:00.840Z,99926.00
2019-06-20T00:13:30.468Z,99915.00
2019-06-20T00:16:06.997Z,99927.00
2019-06-20T00:18:36.514Z,99929.00
2019-06-20T00:21:12.342Z,99928.00
2019-06-20T00:23:41.781Z,99924.00
2019-06-20T00:26:11.254Z,99928.00
2019-06-20T00:28:47.262Z,99931.00
2019-06-20T00:31:22.889Z,99917.00
2019-06-20T00:33:58.564Z,99921.00
2019-06-20T00:36:35.109Z,99919.00
2019-06-20T00:39:06.996Z,99923.00
2019-06-20T00:41:44.009Z,99917.00
2019-06-20T00:44:13.459Z,99922.00
2019-06-20T00:46:49.504Z,99923.00
2019-06-20T00:49:32.118Z,99924.00
2019-06-20T00:52:07.758Z,99917.00
2019-06-20T00:54:37.274Z,99913.00
2019-06-20T00:57:13.259Z,99919.00
2019-06-20T00:59:42.788Z,99916.00
2019-06-20T01:02:24.965Z,99920.00
2019-06-20T01:04:54.420Z,99909.00
2019-06-20T01:07:30.297Z,99908.00
2019-06-20T01:09:59.756Z,99915.00
2019-06-20T01:12:35.886Z,99905.00
2019-06-20T01:15:17.492Z,99901.00
2019-06-20T01:17:47.044Z,99902.00
2019-06-20T01:20:23.779Z,99893.00
2019-06-20T01:22:53.214Z,99904.00
2019-06-20T01:25:48.396Z,99895.00
2019-06-20T01:28:24.526Z,99901.00
2019-06-20T01:31:00.430Z,99898.00
2019-06-20T01:33:30.077Z,99893.00
2019-06-20T01:35:59.528Z,99886.00
2019-06-20T01:38:35.822Z,99893.00
2019-06-20T01:41:06.357Z,99899.00
2019-06-20T01:43:50.607Z,99886.00
2019-06-20T01:46:20.831Z,99886.00
2019-06-20T01:48:57.279Z,99894.00
2019-06-20T01:51:40.043Z,99883.00
2019-06-20T01:54:09.565Z,99885.00
2019-06-20T01:56:45.590Z,99871.00
2019-06-20T01:59:15.035Z,99873.00
2019-06-20T02:01:51.519Z,99874.00
2019-06-20T02:04:21.023Z,99884.00
2019-06-20T02:06:57.678Z,99885.00
2019-06-20T02:09:27.193Z,99889.00
2019-06-20T02:12:02.886Z,99892.00
2019-06-20T02:14:39.236Z,99878.00
2019-06-20T02:17:08.829Z,99874.00
2019-06-20T02:19:44.493Z,99873.00
2019-06-20T02:22:14.011Z,99874.00
2019-06-20T02:24:50.262Z,99880.00
2019-06-20T02:27:21.161Z,99875.00
2019-06-20T02:29:57.148Z,99879.00
2019-06-20T02:32:26.593Z,99880.00
2019-06-20T02:35:02.202Z,99873.00
2019-06-20T02:37:43.871Z,99874.00
2019-06-20T02:40:13.720Z,99877.00
2019-06-20T02:42:43.237Z,99872.00
2019-06-20T02:45:19.647Z,99872.00
2019-06-20T02:47:49.101Z,99869.00
2019-06-20T02:50:31.676Z,99868.00
2019-06-20T02:53:08.032Z,99877.00
2019-06-20T02:55:37.682Z,99874.00
2019-06-20T02:58:14.024Z,99873.00
2019-06-20T03:01:02.314Z,99869.00
2019-06-20T03:03:31.983Z,99882.00
2019-06-20T03:06:01.497Z,99873.00
2019-06-20T03:08:37.728Z,99878.00
2019-06-20T03:11:07.175Z,99878.00
2019-06-20T03:13:43.155Z,99868.00
2019-06-20T03:16:19.023Z,99875.00
2019-06-20T03:18:48.469Z,99871.00
2019-06-20T03:21:18.066Z,99878.00
2019-06-20T03:23:54.034Z,99882.00
2019-06-20T03:26:23.495Z,99893.00
2019-06-20T03:29:00.260Z,99887.00
2019-06-20T03:31:36.630Z,99897.00
2019-06-20T03:34:19.213Z,99883.00
2019-06-20T03:36:55.724Z,99883.00
2019-06-20T03:39:25.154Z,99881.00
2019-06-20T03:42:01.689Z,99878.00
2019-06-20T03:44:31.203Z,99887.00
2019-06-20T03:47:07.255Z,99881.00
2019-06-20T03:49:50.027Z,99894.00
2019-06-20T03:52:33.434Z,99900.00
2019-06-20T03:55:03.142Z,99894.00
2019-06-20T03:57:39.685Z,99889.00
2019-06-20T04:00:10.145Z,99888.00
2019-06-20T04:02:39.608Z,99883.00
2019-06-20T04:05:16.745Z,99885.00
2019-06-20T04:07:52.401Z,99871.00
2019-06-20T04:10:28.618Z,99875.00
2019-06-20T04:12:58.137Z,99874.00
2019-06-20T04:15:33.840Z,99873.00
2019-06-20T04:18:03.293Z,99876.00
2019-06-20T04:20:39.100Z,99880.00
2019-06-20T04:23:08.547Z,99877.00
2019-06-20T04:25:44.599Z,99874.00
2019-06-20T04:28:14.128Z,99875.00
2019-06-20T04:30:49.752Z,99864.00
2019-06-20T04:33:19.217Z,99873.00
2019-06-20T04:36:01.506Z,99870.00
2019-06-20T04:38:31.056Z,99868.00
2019-06-20T04:41:07.045Z,99865.00
2019-06-20T04:43:36.869Z,99870.00
2019-06-20T04:46:14.103Z,99865.00
2019-06-20T04:48:43.559Z,99872.00
2019-06-20T04:51:19.764Z,99870.00
2019-06-20T04:53:55.671Z,99873.00
2019-06-20T04:56:38.146Z,99870.00
2019-06-20T04:59:07.628Z,99866.00
2019-06-20T05:01:44.135Z,99793.00
2019-06-20T05:04:13.671Z,99860.00
2019-06-20T05:06:53.595Z,99859.00
2019-06-20T05:09:23.065Z,99862.00
2019-06-20T05:11:58.714Z,99856.00
2019-06-20T05:14:35.224Z,99851.00
2019-06-20T05:17:10.873Z,99864.00
2019-06-20T05:19:41.804Z,99865.00
2019-06-20T05:22:17.631Z,99857.00
2019-06-20T05:24:47.095Z,99854.00
2019-06-20T05:27:23.161Z,99867.00
2019-06-20T05:29:59.218Z,99872.00
2019-06-20T05:32:28.690Z,99863.00
2019-06-20T05:35:04.954Z,99858.00
2019-06-20T05:37:34.380Z,99865.00
2019-06-20T05:40:11.417Z,99864.00
2019-06-20T05:42:40.955Z,99863.00
2019-06-20T05:45:18.522Z,99860.00
2019-06-20T05:47:48.051Z,99860.00
2019-06-20T05:50:24.833Z,99860.00
2019-06-20T05:53:07.619Z,99859.00
2019-06-20T05:55:44.414Z,99867.00
2019-06-20T05:58:13.967Z,99860.00
2019-06-20T06:00:50.633Z,99862.00
2019-06-20T06:03:26.889Z,99864.00
2019-06-20T06:05:56.435Z,99864.00
2019-06-20T06:08:32.705Z,99860.00
2019-06-20T06:11:02.277Z,99859.00
2019-06-20T06:13:38.289Z,99856.00
2019-06-20T06:16:07.881Z,99857.00
2019-06-20T06:18:44.025Z,99860.00
2019-06-20T06:21:13.656Z,99854.00
2019-06-20T06:23:43.172Z,99862.00
2019-06-20T06:26:18.994Z,99858.00
2019-06-20T06:28:55.022Z,99855.00
2019-06-20T06:31:24.575Z,99866.00
2019-06-20T06:33:54.019Z,99864.00
2019-06-20T06:36:30.292Z,99867.00
2019-06-20T06:39:09.485Z,99871.00
2019-06-20T06:41:46.192Z,99869.00
2019-06-20T06:44:22.220Z,99869.00
2019-06-20T06:46:57.523Z,99877.00
2019-06-20T06:49:30.016Z,99879.00
2019-06-20T06:51:59.672Z,99882.00
2019-06-20T06:54:41.999Z,99900.00
2019-06-20T06:57:17.494Z,99877.00
2019-06-20T06:59:53.318Z,99882.00
2019-06-20T07:02:22.980Z,99873.00
2019-06-20T07:04:59.374Z,99881.00
2019-06-20T07:07:35.271Z,99879.00
2019-06-20T07:10:07.352Z,99882.00
2019-06-20T07:12:43.051Z,99881.00
2019-06-20T07:15:14.398Z,99888.00
2019-06-20T07:17:50.877Z,99883.00
2019-06-20T07:20:27.014Z,99887.00
2019-06-20T07:22:56.554Z,99889.00
2019-06-20T07:25:32.184Z,99885.00
2019-06-20T07:28:01.669Z,99882.00
2019-06-20T07:30:38.095Z,99882.00
2019-06-20T07:33:14.578Z,99894.00
2019-06-20T07:35:45.377Z,99889.00
2019-06-20T07:38:21.296Z,99898.00
2019-06-20T07:40:56.971Z,99896.00
2019-06-20T07:43:26.490Z,99902.00
2019-06-20T07:46:03.377Z,99903.00
2019-06-20T07:48:39.024Z,99889.00
2019-06-20T07:51:08.549Z,99887.00
2019-06-20T07:53:44.434Z,99895.00
2019-06-20T07:56:27.601Z,99895.00
2019-06-20T07:59:03.316Z,99897.00
2019-06-20T08:01:32.932Z,99898.00
2019-06-20T08:04:09.413Z,99907.00
2019-06-20T08:06:38.949Z,99901.00
2019-06-20T08:09:16.394Z,99909.00
2019-06-20T08:11:46.053Z,99901.00
2019-06-20T08:14:22.042Z,99900.00
2019-06-20T08:16:51.558Z,99901.00
2019-06-20T08:19:28.096Z,99897.00
2019-06-20T08:21:57.545Z,99898.00
2019-06-20T08:24:34.256Z,99899.00
2019-06-20T08:27:04.914Z,99902.00
2019-06-20T08:29:41.027Z,99917.00
2019-06-20T08:32:10.626Z,99906.00
2019-06-20T08:34:46.754Z,99903.00
2019-06-20T08:37:16.358Z,99909.00
2019-06-20T08:39:52.435Z,99904.00
2019-06-20T08:42:21.988Z,99903.00
2019-06-20T08:45:03.973Z,99903.00
2019-06-20T08:47:33.753Z,99906.00
2019-06-20T08:50:10.880Z,99902.00
2019-06-20T08:52:46.818Z,99905.00
2019-06-20T08:55:25.208Z,99910.00
2019-06-20T08:58:07.690Z,99907.00
2019-06-20T09:00:38.358Z,99911.00
2019-06-20T09:03:16.936Z,99911.00
2019-06-20T09:05:46.617Z,99913.00
2019-06-20T09:08:22.711Z,99916.00
2019-06-20T09:10:54.123Z,99921.00
2019-06-20T09:13:30.572Z,99917.00
2019-06-20T09:16:00.915Z,99922.00
2019-06-20T09:18:37.324Z,99918.00
2019-06-20T09:21:07.395Z,99926.00
2019-06-20T09:23:43.193Z,99914.00
2019-06-20T09:26:19.186Z,99917.00
2019-06-20T09:28:55.696Z,99913.00
2019-06-20T09:31:25.225Z,99912.00
2019-06-20T09:34:04.903Z,99914.00
2019-06-20T09:36:32.290Z,99913.00
2019-06-20T09:39:08.972Z,99917.00
2019-06-20T09:41:45.471Z,99915.00
2019-06-20T09:44:14.949Z,99908.00
2019-06-20T09:46:52.333Z,99909.00
2019-06-20T09:49:29.281Z,99907.00
2019-06-20T09:52:12.641Z,99908.00
2019-06-20T09:54:44.819Z,99901.00
2019-06-20T09:57:27.377Z,99905.00
2019-06-20T10:00:09.948Z,99907.00
2019-06-20T10:03:01.514Z,99908.00
2019-06-20T10:05:38.167Z,99900.00
2019-06-20T10:08:14.063Z,99905.00
2019-06-20T10:10:43.677Z,99904.00
2019-06-20T10:13:13.133Z,99908.00
2019-06-20T10:15:49.460Z,99910.00
2019-06-20T10:18:19.107Z,99909.00
2019-06-20T10:20:48.890Z,99909.00
2019-06-20T10:23:24.656Z,99903.00
2019-06-20T10:26:00.445Z,99913.00
2019-06-20T10:28:29.974Z,99901.00
2019-06-20T10:30:59.569Z,99898.00
2019-06-20T10:33:35.948Z,99907.00
2019-06-20T10:36:06.016Z,99892.00
2019-06-20T10:38:42.212Z,99892.00
2019-06-20T10:41:11.862Z,99888.00
2019-06-20T10:43:47.614Z,99895.00
2019-06-20T10:46:24.347Z,99895.00
2019-06-20T10:48:54.793Z,99897.00
2019-06-20T10:51:45.966Z,99887.00
2019-06-20T10:54:22.618Z,99867.00
2019-06-20T10:56:58.456Z,99866.00
2019-06-20T10:59:42.670Z,99867.00
2019-06-20T11:02:12.274Z,99852.00
2019-06-20T11:04:49.801Z,99843.00
2019-06-20T11:07:19.514Z,99846.00
2019-06-20T11:09:56.321Z,99847.00
2019-06-20T11:12:42.850Z,99843.00
2019-06-20T11:15:05.355Z,99844.00
2019-06-20T11:17:41.957Z,99842.00
2019-06-20T11:20:12.681Z,99839.00
2019-06-20T11:22:48.741Z,99850.00
2019-06-20T11:25:25.194Z,99858.00
2019-06-20T11:27:54.796Z,99867.00
2019-06-20T11:30:53.307Z,99887.00
2019-06-20T11:33:23.137Z,99916.00
2019-06-20T11:35:52.854Z,99909.00
2019-06-20T11:38:33.337Z,99911.00
2019-06-20T11:41:03.984Z,99909.00
2019-06-20T11:43:40.129Z,99911.00
2019-06-20T11:46:28.159Z,99914.00
2019-06-20T11:49:10.301Z,99898.00
2019-06-20T11:51:46.149Z,99869.00
2019-06-20T11:54:21.996Z,99855.00
2019-06-20T11:56:58.118Z,99855.00
2019-06-20T11:59:40.545Z,99859.00
2019-06-20T12:02:23.890Z,99882.00
2019-06-20T12:04:53.476Z,99890.00
2019-06-20T12:07:29.645Z,99872.00
2019-06-20T12:09:59.667Z,99872.00
2019-06-20T12:12:29.187Z,99846.00
2019-06-20T12:15:07.121Z,99900.00
2019-06-20T12:17:39.338Z,99921.00
2019-06-20T12:20:16.714Z,99897.00
2019-06-20T12:22:52.550Z,99851.00
2019-06-20T12:25:30.048Z,99825.00
2019-06-20T12:28:06.562Z,99831.00
2019-06-20T12:30:36.101Z,99807.00
2019-06-20T12:33:12.571Z,99821.00
2019-06-20T12:35:49.108Z,99852.00
2019-06-20T12:38:18.640Z,99827.00
2019-06-20T12:40:54.967Z,99827.00
2019-06-20T12:43:24.576Z,99856.00
2019-06-20T12:46:00.687Z,99881.00
2019-06-20T12:48:30.347Z,99898.00
2019-06-20T12:51:00.059Z,99951.00
2019-06-20T12:53:37.780Z,100016.00
2019-06-20T12:56:14.678Z,100034.00
2019-06-20T12:58:50.997Z,100042.00
2019-06-20T13:01:36.890Z,100047.00
2019-06-20T13:04:04.030Z,100052.00
2019-06-20T13:06:33.617Z,100046.00
2019-06-20T13:09:10.618Z,100012.00
2019-06-20T13:11:47.398Z,99976.00
2019-06-20T13:14:16.920Z,99978.00
2019-06-20T13:16:52.571Z,99973.00
2019-06-20T13:19:22.036Z,99957.00
2019-06-20T13:21:58.225Z,99949.00
2019-06-20T13:24:27.758Z,99992.00
2019-06-20T13:27:03.507Z,99961.00
2019-06-20T13:29:41.078Z,99945.00
2019-06-20T16:15:52.432Z,99994.00
2019-06-20T16:18:38.023Z,99985.00
2019-06-20T16:21:12.154Z,99988.00
2019-06-20T16:24:01.360Z,99988.00
2019-06-20T16:26:43.765Z,99999.00
2019-06-20T16:29:16.331Z,100001.00
2019-06-20T16:31:55.689Z,99993.00
2019-06-20T16:34:25.181Z,99988.00
2019-06-20T16:37:09.988Z,99980.00
2019-06-20T16:39:39.334Z,99982.00
2019-06-20T16:42:16.225Z,99981.00
2019-06-20T16:44:45.834Z,99972.00
2019-06-20T16:47:21.522Z,99983.00
2019-06-20T16:49:51.143Z,99973.00
2019-06-20T16:52:26.900Z,99976.00
2019-06-20T16:55:02.954Z,99971.00
2019-06-20T16:57:39.039Z,99966.00
2019-06-20T17:00:16.823Z,99964.00
2019-06-20T17:03:06.963Z,99966.00
2019-06-20T17:05:43.096Z,99978.00
2019-06-20T17:08:12.707Z,99974.00
2019-06-20T17:10:48.565Z,99975.00
2019-06-20T17:13:18.165Z,99981.00
2019-06-20T17:15:47.833Z,99993.00
2019-06-20T17:18:26.043Z,100002.00
2019-06-20T17:20:55.663Z,100000.00
2019-06-20T17:23:25.333Z,99998.00
2019-06-20T17:26:01.833Z,100003.00
2019-06-20T17:28:31.439Z,100015.00
2019-06-20T17:31:07.344Z,100026.00
2019-06-20T17:33:36.823Z,100027.00
2019-06-20T17:36:18.239Z,100027.00
2019-06-20T17:38:43.970Z,100028.00
2019-06-20T17:41:15.988Z,100021.00
2019-06-20T17:43:51.827Z,100011.00
2019-06-20T17:46:21.446Z,100009.00
2019-06-20T17:48:58.193Z,100015.00
2019-06-20T17:51:34.448Z,100007.00
2019-06-20T17:54:07.311Z,100010.00
2019-06-20T17:56:50.108Z,100017.00
2019-06-20T17:59:22.669Z,100010.00
2019-06-20T18:01:57.691Z,100013.00
2019-06-20T18:04:27.142Z,100012.00
2019-06-20T18:07:04.038Z,99996.00
2019-06-20T18:09:41.850Z,100000.00
2019-06-20T18:12:17.860Z,100013.00
2019-06-20T18:14:47.400Z,99897.00
2019-06-20T18:17:23.815Z,100012.00
2019-06-20T18:19:59.681Z,100028.00
2019-06-20T18:22:36.066Z,100041.00
2019-06-20T18:25:08.470Z,100044.00
2019-06-20T18:27:38.156Z,100064.00
2019-06-20T18:30:16.295Z,100058.00
2019-06-20T18:32:45.834Z,100066.00
2019-06-20T18:35:22.379Z,100081.00
2019-06-20T18:37:51.984Z,100088.00
2019-06-20T18:40:28.032Z,100092.00
2019-06-20T18:42:57.643Z,100105.00
2019-06-20T18:45:33.679Z,100119.00
2019-06-20T18:48:09.687Z,100129.00
2019-06-20T18:50:39.364Z,100132.00
2019-06-20T18:53:15.110Z,100134.00
2019-06-20T18:55:44.779Z,100140.00
2019-06-20T18:58:27.742Z,100144.00
2019-06-20T19:00:57.346Z,100146.00
2019-06-20T19:03:33.583Z,100139.00
2019-06-20T19:06:09.452Z,100144.00
2019-06-20T19:08:39.073Z,100153.00
2019-06-20T19:11:15.917Z,100161.00
2019-06-20T19:13:45.477Z,100167.00
2019-06-20T19:16:17.268Z,100167.00
2019-06-20T19:18:53.886Z,100167.00
2019-06-20T19:21:36.737Z,100134.00
2019-06-20T19:24:06.582Z,100165.00
2019-06-20T19:26:43.201Z,100169.00
2019-06-20T19:29:12.734Z,100174.00
2019-06-20T19:31:48.890Z,100172.00
2019-06-20T19:34:25.281Z,100176.00
2019-06-20T19:36:54.972Z,100169.00
2019-06-20T19:39:31.087Z,100174.00
2019-06-20T19:42:07.689Z,100175.00
2019-06-20T19:44:37.236Z,100180.00
2019-06-20T19:47:13.789Z,100185.00
2019-06-20T19:49:50.278Z,100176.00
2019-06-20T19:52:26.977Z,100174.00
2019-06-20T19:54:59.111Z,100181.00
2019-06-20T19:57:35.174Z,100176.00
2019-06-20T20:00:19.899Z,100176.00
2019-06-20T20:02:49.606Z,100169.00
2019-06-20T20:05:20.090Z,100183.00
2019-06-20T20:08:03.428Z,100179.00
2019-06-20T20:10:46.446Z,100168.00
2019-06-20T20:13:23.437Z,100165.00
2019-06-20T20:16:00.103Z,100165.00
2019-06-20T20:18:29.724Z,100162.00
2019-06-20T20:21:12.374Z,100162.00
2019-06-20T20:23:54.670Z,100153.00
2019-06-20T20:26:24.201Z,100141.00
2019-06-20T20:29:00.182Z,100131.00
2019-06-20T20:31:30.121Z,100113.00
2019-06-20T20:34:06.621Z,100108.00
2019-06-20T20:36:36.314Z,100109.00
2019-06-20T20:39:16.947Z,100096.00
2019-06-20T20:41:45.652Z,100090.00
2019-06-20T20:44:28.715Z,100104.00
2019-06-20T20:46:58.258Z,100098.00
2019-06-20T20:49:35.647Z,100091.00
2019-06-20T20:52:05.330Z,100099.00
2019-06-20T20:54:35.199Z,100102.00
2019-06-20T20:57:11.577Z,100116.00
2019-06-20T20:59:47.604Z,100110.00
2019-06-20T21:02:24.043Z,100116.00
2019-06-20T21:04:53.521Z,100111.00
2019-06-20T21:07:29.637Z,100126.00
2019-06-20T21:09:59.253Z,100139.00
2019-06-20T21:12:35.749Z,100147.00
2019-06-20T21:15:08.046Z,100164.00
2019-06-20T21:17:43.740Z,100175.00
2019-06-20T21:20:20.843Z,100175.00
2019-06-20T21:23:03.493Z,100178.00
2019-06-20T21:25:33.027Z,100189.00
2019-06-20T21:28:09.147Z,100183.00
2019-06-20T21:30:38.765Z,100190.00
2019-06-20T21:33:08.238Z,100185.00
2019-06-20T21:35:46.848Z,100193.00
2019-06-20T21:38:16.574Z,100192.00
2019-06-20T21:40:52.420Z,100187.00
2019-06-20T21:43:21.879Z,100203.00
2019-06-20T21:45:57.451Z,100194.00
2019-06-20T21:48:33.765Z,100198.00
2019-06-20T21:51:10.141Z,100192.00
2019-06-20T21:53:46.621Z,100204.00
2019-06-20T21:56:16.151Z,100202.00
2019-06-20T21:58:52.760Z,100205.00
2019-06-20T22:01:22.770Z,100196.00
2019-06-20T22:03:58.935Z,100199.00
2019-06-20T22:06:28.556Z,100202.00
2019-06-20T22:09:13.336Z,100204.00
2019-06-20T22:11:49.675Z,100205.00
2019-06-20T22:14:25.761Z,100205.00
2019-06-20T22:16:55.371Z,100211.00
2019-06-20T22:19:31.342Z,100212.00
2019-06-20T22:22:14.017Z,100220.00
2019-06-20T22:24:57.226Z,100214.00
2019-06-20T22:27:33.768Z,100219.00
2019-06-20T22:30:04.854Z,100212.00
2019-06-20T22:32:40.644Z,100209.00
2019-06-20T22:35:10.909Z,100208.00
2019-06-20T22:37:47.693Z,100213.00
2019-06-20T22:40:17.479Z,100214.00
2019-06-20T22:42:53.572Z,100212.00
2019-06-20T22:45:23.551Z,100209.00
2019-06-20T22:47:53.093Z,100216.00
2019-06-20T22:50:31.193Z,100204.00
2019-06-20T22:53:00.727Z,100205.00
2019-06-20T22:55:36.842Z,100202.00
2019-06-20T22:58:07.122Z,100214.00
2019-06-20T23:00:43.156Z,100203.00
2019-06-20T23:03:12.712Z,100199.00
2019-06-20T23:05:49.374Z,100192.00
2019-06-20T23:08:19.016Z,100183.00
2019-06-20T23:11:01.321Z,100183.00
2019-06-20T23:13:30.853Z,100178.00
2019-06-20T23:16:07.473Z,100190.00
2019-06-20T23:18:36.957Z,100195.00
2019-06-20T23:21:13.368Z,100200.00
2019-06-20T23:23:49.627Z,100193.00
2019-06-20T23:26:26.208Z,100194.00
2019-06-20T23:29:13.318Z,100200.00
2019-06-20T23:31:49.147Z,100214.00
2019-06-20T23:34:18.678Z,100221.00
2019-06-20T23:36:54.471Z,100222.00
2019-06-20T23:39:24.008Z,100213.00
2019-06-20T23:41:59.657Z,100202.00
2019-06-20T23:44:29.118Z,100198.00
2019-06-20T23:47:04.826Z,100194.00
2019-06-20T23:49:34.353Z,100192.00
2019-06-20T23:52:17.520Z,100190.00
2019-06-20T23:54:47.068Z,100192.00
2019-06-20T23:57:30.103Z,100196.00
2019-06-20T23:59:59.631Z,100211.00
